createdAt,value
2022-11-13T00:06:44.478Z,5.20
2022-11-13T00:17:07.938Z,5.20
2022-11-13T00:27:31.847Z,5.20
2022-11-13T00:37:56.168Z,5.20
2022-11-13T00:48:18.362Z,5.30
2022-11-13T00:58:41.454Z,5.20
2022-11-13T01:09:03.639Z,5.20
2022-11-13T01:19:26.843Z,5.10
2022-11-13T01:29:49.042Z,5.10
2022-11-13T01:40:15.025Z,5.20
2022-11-13T01:50:37.229Z,5.30
2022-11-13T02:01:00.434Z,5.20
2022-11-13T02:11:22.798Z,5.30
2022-11-13T02:21:54.870Z,5.10
2022-11-13T02:32:18.084Z,5.00
2022-11-13T02:42:40.334Z,5.00
2022-11-13T02:53:04.136Z,5.00
2022-11-13T03:03:56.045Z,5.00
2022-11-13T03:14:09.060Z,4.90
2022-11-13T03:24:31.087Z,4.70
2022-11-13T03:34:54.220Z,4.70
2022-11-13T03:45:16.452Z,4.80
2022-11-13T03:55:40.118Z,4.70
2022-11-13T04:06:02.224Z,4.70
2022-11-13T04:16:25.676Z,4.70
2022-11-13T04:26:47.737Z,4.60
2022-11-13T04:37:11.235Z,4.50
2022-11-13T04:47:32.998Z,4.60
2022-11-13T04:57:56.472Z,4.60
2022-11-13T05:08:18.610Z,4.70
2022-11-13T05:18:42.610Z,4.70
2022-11-13T05:29:04.835Z,4.50
2022-11-13T05:39:27.945Z,4.30
2022-11-13T05:49:50.057Z,4.30
2022-11-13T06:00:15.340Z,4.30
2022-11-13T06:10:37.336Z,4.10
2022-11-13T06:21:06.017Z,4.20
2022-11-13T06:31:30.767Z,4.20
2022-11-13T06:41:53.835Z,4.20
2022-11-13T06:52:15.830Z,4.10
2022-11-13T07:02:39.038Z,4.10
2022-11-13T07:13:01.303Z,4.20
2022-11-13T07:23:24.822Z,4.30
2022-11-13T07:33:49.624Z,4.40
2022-11-13T07:44:21.918Z,4.60
2022-11-13T07:54:55.218Z,4.50
2022-11-13T08:05:19.212Z,4.90
2022-11-13T08:15:41.182Z,4.90
2022-11-13T08:26:07.533Z,4.80
2022-11-13T08:36:29.402Z,5.30
2022-11-13T08:46:52.694Z,5.30
2022-11-13T08:57:14.557Z,5.40
2022-11-13T09:07:38.841Z,5.60
2022-11-13T09:18:01.962Z,6.10
2022-11-13T09:28:25.585Z,6.50
2022-11-13T09:38:48.779Z,6.70
2022-11-13T09:49:18.977Z,6.80
2022-11-13T09:59:48.681Z,7.00
2022-11-13T10:10:32.486Z,7.20
2022-11-13T10:20:59.170Z,7.90
2022-11-13T10:31:22.538Z,8.10
2022-11-13T10:41:49.428Z,8.50
2022-11-13T10:52:22.697Z,8.60
2022-11-13T11:02:51.035Z,8.40
2022-11-13T11:13:23.935Z,8.60
2022-11-13T11:23:55.820Z,8.70
2022-11-13T11:34:23.893Z,8.80
2022-11-13T11:45:06.060Z,8.50
2022-11-13T11:56:07.616Z,8.60
2022-11-13T12:06:44.370Z,8.30
2022-11-13T12:17:27.992Z,8.60
2022-11-13T12:27:59.040Z,8.60
2022-11-13T12:38:34.266Z,8.80
2022-11-13T12:48:56.383Z,8.70
2022-11-13T12:59:35.891Z,8.60
2022-11-13T13:10:11.273Z,8.20
2022-11-13T13:20:38.508Z,8.00
2022-11-13T13:31:10.998Z,7.50
2022-11-13T13:42:09.519Z,7.30
2022-11-13T13:52:34.781Z,7.10
2022-11-13T14:02:58.109Z,6.80
2022-11-13T14:13:27.343Z,6.60
2022-11-13T14:23:53.513Z,6.60
2022-11-13T14:34:21.034Z,6.50
2022-11-13T14:44:44.532Z,6.40
2022-11-13T14:55:15.101Z,6.30
2022-11-13T15:05:39.368Z,6.20
2022-11-13T15:16:01.978Z,6.10
2022-11-13T15:26:25.635Z,6.10
2022-11-13T15:36:47.586Z,5.90
2022-11-13T15:47:29.703Z,5.90
2022-11-13T15:57:52.246Z,5.80
2022-11-13T16:08:17.189Z,5.80
2022-11-13T16:18:42.387Z,5.80
2022-11-13T16:29:19.903Z,5.60
2022-11-13T16:39:42.068Z,5.40
2022-11-13T16:50:13.744Z,5.20
2022-11-13T17:00:35.987Z,5.20
2022-11-13T17:11:02.384Z,5.10
2022-11-13T17:21:27.186Z,5.00
2022-11-13T17:31:50.703Z,5.00
2022-11-13T17:42:12.857Z,5.00
2022-11-13T17:52:35.907Z,5.10
2022-11-13T18:02:57.910Z,5.10
2022-11-13T18:13:21.335Z,5.20
2022-11-13T18:23:43.552Z,5.20
2022-11-13T18:34:09.983Z,5.20
2022-11-13T18:44:31.869Z,5.20
2022-11-13T18:54:56.393Z,5.10
2022-11-13T19:05:18.454Z,4.90
2022-11-13T19:15:41.894Z,5.00
2022-11-13T19:26:04.329Z,4.90
2022-11-13T19:36:30.017Z,4.70
2022-11-13T19:46:53.512Z,4.80
2022-11-13T19:57:17.075Z,4.70
2022-11-13T20:07:39.295Z,4.70
2022-11-13T20:18:02.499Z,4.90
2022-11-13T20:28:25.158Z,4.90
2022-11-13T20:38:53.585Z,4.90
2022-11-13T20:49:15.967Z,5.00
2022-11-13T20:59:39.303Z,5.00
2022-11-13T21:10:02.011Z,5.10
2022-11-13T21:20:25.472Z,5.10
2022-11-13T21:30:47.351Z,4.90
2022-11-13T21:41:24.952Z,4.80
2022-11-13T21:51:47.491Z,4.80
2022-11-13T22:02:13.055Z,4.70
2022-11-13T22:12:34.997Z,4.70
2022-11-13T22:22:58.542Z,4.50
2022-11-13T22:33:20.541Z,4.60
2022-11-13T22:43:44.467Z,4.40
2022-11-13T22:54:09.133Z,4.50
2022-11-13T23:04:32.621Z,4.70
2022-11-13T23:14:54.811Z,4.60
2022-11-13T23:25:17.944Z,4.60
2022-11-13T23:35:39.991Z,4.80
2022-11-13T23:46:03.453Z,4.80
2022-11-13T23:56:25.552Z,4.80
